Terminal Aerodrome Forecast
Issued by NWS Shreveport, LA

Home | Current Version | Previous Version | Text Only | Print | Product List | Glossary On
Versions: 1 2 3 4 5 6 7 8 9 10 11 12 13 14 15 16 17 18 19 20 21 22 23
228
FTUS44 KSHV 281946 AAD
TAFELD
TAF AMD
KELD 281946Z 2820/2918 20004KT P6SM -TSRA FEW035CB
      TEMPO 2821/2824 P6SM -TSRA BKN025CB OVC150
     FM290100 20004KT P6SM SCT060 BKN150 BKN250
     FM290500 20004KT P6SM BKN150 BKN250
      TEMPO 2909/2912 4SM BR BKN150
     FM291500 23006KT P6SM BKN250=

USA.gov is the U.S. government's official web portal to all federal, state and local government web resources and services.